sensor_id;sensor_type;location;lat;lon;timestamp;temperature;humidity
5304;DHT22;2674;49.722;10.892;2023-04-24T00:00:04;11.30;99.90
5304;DHT22;2674;49.722;10.892;2023-04-24T00:02:38;11.20;99.90
5304;DHT22;2674;49.722;10.892;2023-04-24T00:05:07;11.20;99.90
5304;DHT22;2674;49.722;10.892;2023-04-24T00:07:34;11.20;99.90
5304;DHT22;2674;49.722;10.892;2023-04-24T00:10:00;11.20;99.90
5304;DHT22;2674;49.722;10.892;2023-04-24T00:12:26;11.20;99.90
5304;DHT22;2674;49.722;10.892;2023-04-24T00:14:53;11.20;99.90
5304;DHT22;2674;49.722;10.892;2023-04-24T00:17:19;11.20;99.90
5304;DHT22;2674;49.722;10.892;2023-04-24T00:19:48;11.20;99.90
5304;DHT22;2674;49.722;10.892;2023-04-24T00:22:14;11.20;99.90
5304;DHT22;2674;49.722;10.892;2023-04-24T00:24:40;11.10;99.90
5304;DHT22;2674;49.722;10.892;2023-04-24T00:27:06;11.10;99.90
5304;DHT22;2674;49.722;10.892;2023-04-24T00:29:35;11.10;99.90
5304;DHT22;2674;49.722;10.892;2023-04-24T00:32:03;10.70;99.90
5304;DHT22;2674;49.722;10.892;2023-04-24T00:34:29;11.00;99.90
5304;DHT22;2674;49.722;10.892;2023-04-24T00:36:55;11.00;99.90
5304;DHT22;2674;49.722;10.892;2023-04-24T00:39:22;11.00;99.90
5304;DHT22;2674;49.722;10.892;2023-04-24T00:41:48;11.00;99.90
5304;DHT22;2674;49.722;10.892;2023-04-24T00:44:14;10.90;99.90
5304;DHT22;2674;49.722;10.892;2023-04-24T00:46:40;10.90;99.90
5304;DHT22;2674;49.722;10.892;2023-04-24T00:49:06;10.90;99.90
5304;DHT22;2674;49.722;10.892;2023-04-24T00:51:32;10.80;99.90
5304;DHT22;2674;49.722;10.892;2023-04-24T00:54:00;10.80;99.90
5304;DHT22;2674;49.722;10.892;2023-04-24T00:56:26;10.80;99.90
5304;DHT22;2674;49.722;10.892;2023-04-24T00:58:53;10.80;99.90
5304;DHT22;2674;49.722;10.892;2023-04-24T01:01:22;10.70;99.90
5304;DHT22;2674;49.722;10.892;2023-04-24T01:03:51;10.70;99.90
5304;DHT22;2674;49.722;10.892;2023-04-24T01:06:19;10.70;99.90
5304;DHT22;2674;49.722;10.892;2023-04-24T01:08:46;10.70;99.90
5304;DHT22;2674;49.722;10.892;2023-04-24T01:11:13;10.70;99.90
5304;DHT22;2674;49.722;10.892;2023-04-24T01:13:39;10.70;99.90
5304;DHT22;2674;49.722;10.892;2023-04-24T01:16:06;10.60;99.90
5304;DHT22;2674;49.722;10.892;2023-04-24T01:18:31;10.70;99.90
5304;DHT22;2674;49.722;10.892;2023-04-24T01:20:59;10.70;99.90
5304;DHT22;2674;49.722;10.892;2023-04-24T01:23:29;10.70;99.90
5304;DHT22;2674;49.722;10.892;2023-04-24T01:25:55;10.70;99.90
5304;DHT22;2674;49.722;10.892;2023-04-24T01:28:21;10.70;99.90
5304;DHT22;2674;49.722;10.892;2023-04-24T01:30:47;10.70;99.90
5304;DHT22;2674;49.722;10.892;2023-04-24T01:33:13;10.70;99.90
5304;DHT22;2674;49.722;10.892;2023-04-24T01:35:40;10.80;99.90
5304;DHT22;2674;49.722;10.892;2023-04-24T01:38:06;10.80;99.90
5304;DHT22;2674;49.722;10.892;2023-04-24T01:40:32;10.80;99.90
5304;DHT22;2674;49.722;10.892;2023-04-24T01:42:58;10.80;99.90
5304;DHT22;2674;49.722;10.892;2023-04-24T01:45:25;10.80;99.90
5304;DHT22;2674;49.722;10.892;2023-04-24T01:47:50;10.80;99.90
5304;DHT22;2674;49.722;10.892;2023-04-24T01:50:17;10.80;99.90
5304;DHT22;2674;49.722;10.892;2023-04-24T01:52:43;10.80;99.90
5304;DHT22;2674;49.722;10.892;2023-04-24T01:55:12;10.80;99.90
5304;DHT22;2674;49.722;10.892;2023-04-24T01:57:38;10.80;99.90
5304;DHT22;2674;49.722;10.892;2023-04-24T02:00:05;10.80;99.90
5304;DHT22;2674;49.722;10.892;2023-04-24T02:02:32;10.80;99.90
5304;DHT22;2674;49.722;10.892;2023-04-24T02:04:58;10.80;99.90
5304;DHT22;2674;49.722;10.892;2023-04-24T02:07:24;10.80;99.90
5304;DHT22;2674;49.722;10.892;2023-04-24T02:09:50;10.80;99.90
5304;DHT22;2674;49.722;10.892;2023-04-24T02:12:16;10.80;99.90
5304;DHT22;2674;49.722;10.892;2023-04-24T02:14:43;10.80;99.90
5304;DHT22;2674;49.722;10.892;2023-04-24T02:17:09;10.80;99.90
5304;DHT22;2674;49.722;10.892;2023-04-24T02:19:35;10.80;99.90
5304;DHT22;2674;49.722;10.892;2023-04-24T02:22:01;10.80;99.90
5304;DHT22;2674;49.722;10.892;2023-04-24T02:24:27;10.80;99.90
5304;DHT22;2674;49.722;10.892;2023-04-24T02:26:52;10.80;99.90
5304;DHT22;2674;49.722;10.892;2023-04-24T02:29:18;10.80;99.90
5304;DHT22;2674;49.722;10.892;2023-04-24T02:31:44;10.80;99.90
5304;DHT22;2674;49.722;10.892;2023-04-24T02:34:10;10.70;99.90
5304;DHT22;2674;49.722;10.892;2023-04-24T02:36:35;10.80;99.90
5304;DHT22;2674;49.722;10.892;2023-04-24T02:39:01;10.70;99.90
5304;DHT22;2674;49.722;10.892;2023-04-24T02:41:29;10.70;99.90
5304;DHT22;2674;49.722;10.892;2023-04-24T02:43:58;10.70;99.90
5304;DHT22;2674;49.722;10.892;2023-04-24T02:46:24;10.70;99.90
5304;DHT22;2674;49.722;10.892;2023-04-24T02:48:50;10.70;99.90
5304;DHT22;2674;49.722;10.892;2023-04-24T02:51:16;10.60;99.90
5304;DHT22;2674;49.722;10.892;2023-04-24T02:53:42;10.60;99.90
5304;DHT22;2674;49.722;10.892;2023-04-24T02:56:08;10.60;99.90
5304;DHT22;2674;49.722;10.892;2023-04-24T02:58:33;10.60;99.90
5304;DHT22;2674;49.722;10.892;2023-04-24T03:00:59;10.60;99.90
5304;DHT22;2674;49.722;10.892;2023-04-24T03:03:26;10.50;99.90
5304;DHT22;2674;49.722;10.892;2023-04-24T03:05:51;10.50;99.90
5304;DHT22;2674;49.722;10.892;2023-04-24T03:08:17;10.50;99.90
5304;DHT22;2674;49.722;10.892;2023-04-24T03:10:43;10.50;99.90
5304;DHT22;2674;49.722;10.892;2023-04-24T03:13:10;10.50;99.90
5304;DHT22;2674;49.722;10.892;2023-04-24T03:15:35;10.50;99.90
5304;DHT22;2674;49.722;10.892;2023-04-24T03:18:01;10.50;99.90
5304;DHT22;2674;49.722;10.892;2023-04-24T03:20:28;10.40;99.90
5304;DHT22;2674;49.722;10.892;2023-04-24T03:22:54;10.40;99.90
5304;DHT22;2674;49.722;10.892;2023-04-24T03:25:20;10.40;99.90
5304;DHT22;2674;49.722;10.892;2023-04-24T03:27:46;10.40;99.90
5304;DHT22;2674;49.722;10.892;2023-04-24T03:30:11;10.40;99.90
5304;DHT22;2674;49.722;10.892;2023-04-24T03:32:37;10.30;99.90
5304;DHT22;2674;49.722;10.892;2023-04-24T03:35:06;10.30;99.90
5304;DHT22;2674;49.722;10.892;2023-04-24T03:37:33;10.30;99.90
5304;DHT22;2674;49.722;10.892;2023-04-24T03:39:58;10.30;99.90
5304;DHT22;2674;49.722;10.892;2023-04-24T03:42:24;10.30;99.90
5304;DHT22;2674;49.722;10.892;2023-04-24T03:44:50;10.30;99.90
5304;DHT22;2674;49.722;10.892;2023-04-24T03:47:16;10.30;99.90
5304;DHT22;2674;49.722;10.892;2023-04-24T03:49:41;10.20;99.90
5304;DHT22;2674;49.722;10.892;2023-04-24T03:52:07;10.20;99.90
5304;DHT22;2674;49.722;10.892;2023-04-24T03:54:33;10.20;99.90
5304;DHT22;2674;49.722;10.892;2023-04-24T03:56:59;10.20;99.90
5304;DHT22;2674;49.722;10.892;2023-04-24T03:59:25;10.20;99.90
5304;DHT22;2674;49.722;10.892;2023-04-24T04:01:51;10.20;99.90
5304;DHT22;2674;49.722;10.892;2023-04-24T04:04:17;10.20;99.90
5304;DHT22;2674;49.722;10.892;2023-04-24T04:06:43;10.20;99.90
5304;DHT22;2674;49.722;10.892;2023-04-24T04:09:10;10.10;99.90
5304;DHT22;2674;49.722;10.892;2023-04-24T04:11:36;10.10;99.90
5304;DHT22;2674;49.722;10.892;2023-04-24T04:14:02;10.20;99.90
5304;DHT22;2674;49.722;10.892;2023-04-24T04:16:28;10.10;99.90
5304;DHT22;2674;49.722;10.892;2023-04-24T04:18:54;10.10;99.90
5304;DHT22;2674;49.722;10.892;2023-04-24T04:21:20;10.10;99.90
5304;DHT22;2674;49.722;10.892;2023-04-24T04:23:46;10.10;99.90
5304;DHT22;2674;49.722;10.892;2023-04-24T04:26:12;10.10;99.90
5304;DHT22;2674;49.722;10.892;2023-04-24T04:28:38;10.10;99.90
5304;DHT22;2674;49.722;10.892;2023-04-24T04:31:05;10.10;99.90
5304;DHT22;2674;49.722;10.892;2023-04-24T04:33:31;10.10;99.90
5304;DHT22;2674;49.722;10.892;2023-04-24T04:35:57;10.10;99.90
5304;DHT22;2674;49.722;10.892;2023-04-24T04:38:23;10.10;99.90
5304;DHT22;2674;49.722;10.892;2023-04-24T04:40:49;10.10;99.90
5304;DHT22;2674;49.722;10.892;2023-04-24T04:43:15;10.10;99.90
5304;DHT22;2674;49.722;10.892;2023-04-24T04:45:41;10.10;99.90
5304;DHT22;2674;49.722;10.892;2023-04-24T04:48:09;10.10;99.90
5304;DHT22;2674;49.722;10.892;2023-04-24T04:50:37;10.10;99.90
5304;DHT22;2674;49.722;10.892;2023-04-24T04:53:04;10.10;99.90
5304;DHT22;2674;49.722;10.892;2023-04-24T04:55:30;10.10;99.90
5304;DHT22;2674;49.722;10.892;2023-04-24T04:57:56;10.10;99.90
5304;DHT22;2674;49.722;10.892;2023-04-24T05:00:22;10.10;99.90
5304;DHT22;2674;49.722;10.892;2023-04-24T05:02:51;10.10;99.90
5304;DHT22;2674;49.722;10.892;2023-04-24T05:05:17;10.20;99.90
5304;DHT22;2674;49.722;10.892;2023-04-24T05:07:44;10.20;99.90
5304;DHT22;2674;49.722;10.892;2023-04-24T05:10:10;10.20;99.90
5304;DHT22;2674;49.722;10.892;2023-04-24T05:12:36;10.20;99.90
5304;DHT22;2674;49.722;10.892;2023-04-24T05:15:03;10.20;99.90
5304;DHT22;2674;49.722;10.892;2023-04-24T05:17:29;10.20;99.90
5304;DHT22;2674;49.722;10.892;2023-04-24T05:19:55;10.30;99.90
5304;DHT22;2674;49.722;10.892;2023-04-24T05:22:20;10.30;99.90
5304;DHT22;2674;49.722;10.892;2023-04-24T05:24:47;10.30;99.90
5304;DHT22;2674;49.722;10.892;2023-04-24T05:27:13;10.30;99.90
5304;DHT22;2674;49.722;10.892;2023-04-24T05:29:39;10.30;99.90
5304;DHT22;2674;49.722;10.892;2023-04-24T05:32:06;10.30;99.90
5304;DHT22;2674;49.722;10.892;2023-04-24T05:34:32;10.30;99.90
5304;DHT22;2674;49.722;10.892;2023-04-24T05:36:58;10.30;99.90
5304;DHT22;2674;49.722;10.892;2023-04-24T05:39:23;10.40;99.90
5304;DHT22;2674;49.722;10.892;2023-04-24T05:41:50;10.40;99.90
5304;DHT22;2674;49.722;10.892;2023-04-24T05:44:20;10.40;99.90
5304;DHT22;2674;49.722;10.892;2023-04-24T05:46:46;10.50;99.90
5304;DHT22;2674;49.722;10.892;2023-04-24T05:49:12;10.50;99.90
5304;DHT22;2674;49.722;10.892;2023-04-24T05:51:37;10.50;99.90
5304;DHT22;2674;49.722;10.892;2023-04-24T05:54:04;10.60;99.90
5304;DHT22;2674;49.722;10.892;2023-04-24T05:56:30;10.60;99.90
5304;DHT22;2674;49.722;10.892;2023-04-24T05:58:56;10.70;99.90
5304;DHT22;2674;49.722;10.892;2023-04-24T06:01:22;10.70;99.90
5304;DHT22;2674;49.722;10.892;2023-04-24T06:03:48;10.70;99.90
5304;DHT22;2674;49.722;10.892;2023-04-24T06:06:14;10.70;99.90
5304;DHT22;2674;49.722;10.892;2023-04-24T06:08:41;10.70;99.90
5304;DHT22;2674;49.722;10.892;2023-04-24T06:11:08;10.70;99.90
5304;DHT22;2674;49.722;10.892;2023-04-24T06:13:35;10.70;99.90
5304;DHT22;2674;49.722;10.892;2023-04-24T06:16:01;10.70;99.90
5304;DHT22;2674;49.722;10.892;2023-04-24T06:18:27;10.70;99.90
5304;DHT22;2674;49.722;10.892;2023-04-24T06:20:52;10.70;99.90
5304;DHT22;2674;49.722;10.892;2023-04-24T06:23:18;10.60;99.90
5304;DHT22;2674;49.722;10.892;2023-04-24T06:25:44;10.60;99.90
5304;DHT22;2674;49.722;10.892;2023-04-24T06:28:10;10.60;99.90
5304;DHT22;2674;49.722;10.892;2023-04-24T06:30:36;10.60;99.90
5304;DHT22;2674;49.722;10.892;2023-04-24T06:33:01;10.60;99.90
5304;DHT22;2674;49.722;10.892;2023-04-24T06:35:27;10.50;99.90
5304;DHT22;2674;49.722;10.892;2023-04-24T06:37:53;10.60;99.90
5304;DHT22;2674;49.722;10.892;2023-04-24T06:40:21;10.60;99.90
5304;DHT22;2674;49.722;10.892;2023-04-24T06:42:47;10.50;99.90
5304;DHT22;2674;49.722;10.892;2023-04-24T06:45:13;10.50;99.90
5304;DHT22;2674;49.722;10.892;2023-04-24T06:47:39;10.50;99.90
5304;DHT22;2674;49.722;10.892;2023-04-24T06:50:05;10.50;99.90
5304;DHT22;2674;49.722;10.892;2023-04-24T06:52:31;10.50;99.90
5304;DHT22;2674;49.722;10.892;2023-04-24T06:55:04;10.50;99.90
5304;DHT22;2674;49.722;10.892;2023-04-24T06:57:30;10.40;99.90
5304;DHT22;2674;49.722;10.892;2023-04-24T06:59:56;10.50;99.90
5304;DHT22;2674;49.722;10.892;2023-04-24T07:02:22;10.50;99.90
5304;DHT22;2674;49.722;10.892;2023-04-24T07:04:48;10.50;99.90
5304;DHT22;2674;49.722;10.892;2023-04-24T07:07:14;10.50;99.90
5304;DHT22;2674;49.722;10.892;2023-04-24T07:09:40;10.60;99.90
5304;DHT22;2674;49.722;10.892;2023-04-24T07:12:08;10.60;99.90
5304;DHT22;2674;49.722;10.892;2023-04-24T07:14:36;10.70;99.90
5304;DHT22;2674;49.722;10.892;2023-04-24T07:17:06;10.80;99.90
5304;DHT22;2674;49.722;10.892;2023-04-24T07:19:33;10.80;99.90
5304;DHT22;2674;49.722;10.892;2023-04-24T07:22:00;11.00;99.90
5304;DHT22;2674;49.722;10.892;2023-04-24T07:24:26;11.10;99.90
5304;DHT22;2674;49.722;10.892;2023-04-24T07:26:53;11.20;99.90
5304;DHT22;2674;49.722;10.892;2023-04-24T07:29:19;11.40;99.90
5304;DHT22;2674;49.722;10.892;2023-04-24T07:31:46;11.50;99.90
5304;DHT22;2674;49.722;10.892;2023-04-24T07:34:13;11.50;99.90
5304;DHT22;2674;49.722;10.892;2023-04-24T07:36:38;11.50;97.10
5304;DHT22;2674;49.722;10.892;2023-04-24T07:39:05;11.40;92.00
5304;DHT22;2674;49.722;10.892;2023-04-24T08:01:23;12.40;23.30
5304;DHT22;2674;49.722;10.892;2023-04-24T08:03:49;12.50;1.00
5304;DHT22;2674;49.722;10.892;2023-04-24T08:06:14;12.40;1.00
5304;DHT22;2674;49.722;10.892;2023-04-24T08:08:40;12.30;1.00
5304;DHT22;2674;49.722;10.892;2023-04-24T08:11:06;12.40;1.00
5304;DHT22;2674;49.722;10.892;2023-04-24T08:13:32;12.30;1.00
5304;DHT22;2674;49.722;10.892;2023-04-24T08:15:58;12.20;1.00
5304;DHT22;2674;49.722;10.892;2023-04-24T08:18:23;12.10;1.00
5304;DHT22;2674;49.722;10.892;2023-04-24T08:20:49;12.00;1.00
5304;DHT22;2674;49.722;10.892;2023-04-24T08:23:18;12.00;1.00
5304;DHT22;2674;49.722;10.892;2023-04-24T08:25:48;12.10;1.00
5304;DHT22;2674;49.722;10.892;2023-04-24T08:28:14;12.20;1.00
5304;DHT22;2674;49.722;10.892;2023-04-24T08:30:45;12.30;1.00
5304;DHT22;2674;49.722;10.892;2023-04-24T08:33:12;12.20;1.00
5304;DHT22;2674;49.722;10.892;2023-04-24T08:35:38;12.20;1.00
5304;DHT22;2674;49.722;10.892;2023-04-24T08:38:04;12.20;1.00
5304;DHT22;2674;49.722;10.892;2023-04-24T08:40:34;12.20;1.00
5304;DHT22;2674;49.722;10.892;2023-04-24T08:43:00;12.20;1.00
5304;DHT22;2674;49.722;10.892;2023-04-24T08:45:26;12.10;1.00
5304;DHT22;2674;49.722;10.892;2023-04-24T08:47:53;12.20;1.00
5304;DHT22;2674;49.722;10.892;2023-04-24T08:50:21;12.20;1.00
5304;DHT22;2674;49.722;10.892;2023-04-24T08:52:49;12.20;1.00
5304;DHT22;2674;49.722;10.892;2023-04-24T08:55:15;12.20;1.00
5304;DHT22;2674;49.722;10.892;2023-04-24T08:57:51;12.20;1.00
5304;DHT22;2674;49.722;10.892;2023-04-24T09:00:20;12.10;1.00
5304;DHT22;2674;49.722;10.892;2023-04-24T09:02:48;12.10;1.00
5304;DHT22;2674;49.722;10.892;2023-04-24T09:05:16;12.20;1.00
5304;DHT22;2674;49.722;10.892;2023-04-24T09:07:45;12.30;1.00
5304;DHT22;2674;49.722;10.892;2023-04-24T09:10:15;12.30;1.00
5304;DHT22;2674;49.722;10.892;2023-04-24T09:12:42;12.40;1.00
5304;DHT22;2674;49.722;10.892;2023-04-24T09:15:09;12.50;1.00
5304;DHT22;2674;49.722;10.892;2023-04-24T09:17:35;12.60;1.00
5304;DHT22;2674;49.722;10.892;2023-04-24T09:20:01;12.60;1.00
5304;DHT22;2674;49.722;10.892;2023-04-24T09:22:30;12.70;1.00
5304;DHT22;2674;49.722;10.892;2023-04-24T09:25:02;12.70;1.00
5304;DHT22;2674;49.722;10.892;2023-04-24T09:27:29;12.70;1.00
5304;DHT22;2674;49.722;10.892;2023-04-24T09:29:55;12.80;1.00
5304;DHT22;2674;49.722;10.892;2023-04-24T09:32:23;12.80;1.00
5304;DHT22;2674;49.722;10.892;2023-04-24T09:35:11;12.80;1.00
5304;DHT22;2674;49.722;10.892;2023-04-24T09:37:43;13.00;1.00
5304;DHT22;2674;49.722;10.892;2023-04-24T09:40:17;13.10;1.00
5304;DHT22;2674;49.722;10.892;2023-04-24T09:42:45;13.30;1.00
5304;DHT22;2674;49.722;10.892;2023-04-24T09:45:12;13.30;1.00
5304;DHT22;2674;49.722;10.892;2023-04-24T09:47:39;13.30;1.00
5304;DHT22;2674;49.722;10.892;2023-04-24T09:50:13;13.20;1.00
5304;DHT22;2674;49.722;10.892;2023-04-24T09:52:44;13.10;1.00
5304;DHT22;2674;49.722;10.892;2023-04-24T09:55:18;12.90;1.00
5304;DHT22;2674;49.722;10.892;2023-04-24T09:58:03;12.80;1.00
5304;DHT22;2674;49.722;10.892;2023-04-24T10:00:32;12.60;1.00
5304;DHT22;2674;49.722;10.892;2023-04-24T10:03:02;12.50;1.00
5304;DHT22;2674;49.722;10.892;2023-04-24T10:05:33;12.40;1.00
5304;DHT22;2674;49.722;10.892;2023-04-24T10:08:10;12.30;1.00
5304;DHT22;2674;49.722;10.892;2023-04-24T10:10:42;12.20;1.00
5304;DHT22;2674;49.722;10.892;2023-04-24T10:13:13;12.10;1.00
5304;DHT22;2674;49.722;10.892;2023-04-24T10:15:41;11.90;1.00
5304;DHT22;2674;49.722;10.892;2023-04-24T10:18:08;11.70;1.00
5304;DHT22;2674;49.722;10.892;2023-04-24T10:20:36;11.50;1.00
5304;DHT22;2674;49.722;10.892;2023-04-24T10:23:05;11.30;1.00
5304;DHT22;2674;49.722;10.892;2023-04-24T10:25:33;11.10;1.00
5304;DHT22;2674;49.722;10.892;2023-04-24T10:28:00;11.10;1.00
5304;DHT22;2674;49.722;10.892;2023-04-24T10:30:31;11.20;1.00
5304;DHT22;2674;49.722;10.892;2023-04-24T10:33:02;11.30;1.00
5304;DHT22;2674;49.722;10.892;2023-04-24T10:35:32;11.40;1.00
5304;DHT22;2674;49.722;10.892;2023-04-24T10:38:05;11.50;1.00
5304;DHT22;2674;49.722;10.892;2023-04-24T10:40:34;11.60;1.00
5304;DHT22;2674;49.722;10.892;2023-04-24T10:43:08;11.70;1.00
5304;DHT22;2674;49.722;10.892;2023-04-24T10:45:37;11.80;1.00
5304;DHT22;2674;49.722;10.892;2023-04-24T10:48:05;11.90;1.00
5304;DHT22;2674;49.722;10.892;2023-04-24T11:08:15;13.10;1.00
5304;DHT22;2674;49.722;10.892;2023-04-24T11:10:58;13.20;1.00
5304;DHT22;2674;49.722;10.892;2023-04-24T11:13:26;13.20;1.00
5304;DHT22;2674;49.722;10.892;2023-04-24T11:16:12;13.20;1.00
5304;DHT22;2674;49.722;10.892;2023-04-24T11:18:39;13.10;1.00
5304;DHT22;2674;49.722;10.892;2023-04-24T11:21:18;13.00;1.00
5304;DHT22;2674;49.722;10.892;2023-04-24T11:23:45;12.80;1.00
5304;DHT22;2674;49.722;10.892;2023-04-24T11:26:13;12.80;1.00
5304;DHT22;2674;49.722;10.892;2023-04-24T11:28:49;12.70;1.00
5304;DHT22;2674;49.722;10.892;2023-04-24T11:31:37;12.70;1.00
5304;DHT22;2674;49.722;10.892;2023-04-24T11:34:11;13.00;1.00
5304;DHT22;2674;49.722;10.892;2023-04-24T11:36:38;13.30;1.00
5304;DHT22;2674;49.722;10.892;2023-04-24T11:39:04;13.40;1.00
5304;DHT22;2674;49.722;10.892;2023-04-24T11:41:31;13.30;1.00
5304;DHT22;2674;49.722;10.892;2023-04-24T11:43:57;13.30;1.00
5304;DHT22;2674;49.722;10.892;2023-04-24T11:46:27;13.30;1.00
5304;DHT22;2674;49.722;10.892;2023-04-24T11:48:54;13.30;1.00
5304;DHT22;2674;49.722;10.892;2023-04-24T11:51:20;13.40;1.00
5304;DHT22;2674;49.722;10.892;2023-04-24T11:53:48;13.40;1.00
5304;DHT22;2674;49.722;10.892;2023-04-24T11:56:17;13.30;1.00
5304;DHT22;2674;49.722;10.892;2023-04-24T11:58:45;13.30;1.00
5304;DHT22;2674;49.722;10.892;2023-04-24T12:01:12;13.40;1.00
5304;DHT22;2674;49.722;10.892;2023-04-24T12:03:38;13.50;1.00
5304;DHT22;2674;49.722;10.892;2023-04-24T12:06:08;13.50;1.00
5304;DHT22;2674;49.722;10.892;2023-04-24T12:08:34;13.30;1.00
5304;DHT22;2674;49.722;10.892;2023-04-24T12:11:01;13.10;1.00
5304;DHT22;2674;49.722;10.892;2023-04-24T12:13:27;12.90;1.00
5304;DHT22;2674;49.722;10.892;2023-04-24T12:15:53;12.80;1.00
5304;DHT22;2674;49.722;10.892;2023-04-24T12:18:22;12.70;1.00
5304;DHT22;2674;49.722;10.892;2023-04-24T12:20:48;12.60;1.00
5304;DHT22;2674;49.722;10.892;2023-04-24T12:23:14;12.50;1.00
5304;DHT22;2674;49.722;10.892;2023-04-24T12:25:40;12.40;1.00
5304;DHT22;2674;49.722;10.892;2023-04-24T12:30:44;12.30;1.00
5304;DHT22;2674;49.722;10.892;2023-04-24T12:33:10;12.30;1.00
5304;DHT22;2674;49.722;10.892;2023-04-24T12:35:36;12.40;1.00
5304;DHT22;2674;49.722;10.892;2023-04-24T12:38:09;12.40;1.00
5304;DHT22;2674;49.722;10.892;2023-04-24T12:40:35;12.40;1.00
5304;DHT22;2674;49.722;10.892;2023-04-24T12:43:13;12.40;1.00
5304;DHT22;2674;49.722;10.892;2023-04-24T12:45:39;12.50;1.00
5304;DHT22;2674;49.722;10.892;2023-04-24T12:48:05;12.50;1.00
5304;DHT22;2674;49.722;10.892;2023-04-24T12:50:31;12.60;1.00
5304;DHT22;2674;49.722;10.892;2023-04-24T12:52:57;12.70;1.00
5304;DHT22;2674;49.722;10.892;2023-04-24T12:55:22;12.70;1.00
5304;DHT22;2674;49.722;10.892;2023-04-24T12:57:48;12.70;1.00
5304;DHT22;2674;49.722;10.892;2023-04-24T13:00:14;12.70;1.00
5304;DHT22;2674;49.722;10.892;2023-04-24T13:02:40;12.60;1.00
5304;DHT22;2674;49.722;10.892;2023-04-24T13:05:06;12.60;1.00
5304;DHT22;2674;49.722;10.892;2023-04-24T13:07:33;12.50;1.00
5304;DHT22;2674;49.722;10.892;2023-04-24T13:09:58;12.50;1.00
5304;DHT22;2674;49.722;10.892;2023-04-24T13:14:59;12.30;1.00
5304;DHT22;2674;49.722;10.892;2023-04-24T13:17:25;12.20;1.00
5304;DHT22;2674;49.722;10.892;2023-04-24T13:19:53;12.10;1.00
5304;DHT22;2674;49.722;10.892;2023-04-24T13:22:20;12.10;1.00
5304;DHT22;2674;49.722;10.892;2023-04-24T13:24:46;12.20;1.00
5304;DHT22;2674;49.722;10.892;2023-04-24T13:27:14;12.40;1.00
5304;DHT22;2674;49.722;10.892;2023-04-24T13:29:40;12.60;1.00
5304;DHT22;2674;49.722;10.892;2023-04-24T13:32:06;12.90;1.00
5304;DHT22;2674;49.722;10.892;2023-04-24T13:34:32;13.30;1.00
5304;DHT22;2674;49.722;10.892;2023-04-24T13:36:58;13.60;1.00
5304;DHT22;2674;49.722;10.892;2023-04-24T13:39:25;13.80;1.00
5304;DHT22;2674;49.722;10.892;2023-04-24T13:41:51;13.90;1.00
5304;DHT22;2674;49.722;10.892;2023-04-24T13:44:18;13.90;1.00
5304;DHT22;2674;49.722;10.892;2023-04-24T13:46:46;13.80;1.00
5304;DHT22;2674;49.722;10.892;2023-04-24T13:49:13;13.90;1.00
5304;DHT22;2674;49.722;10.892;2023-04-24T13:51:39;13.90;1.00
5304;DHT22;2674;49.722;10.892;2023-04-24T13:54:06;14.00;1.00
5304;DHT22;2674;49.722;10.892;2023-04-24T13:56:32;14.10;1.00
5304;DHT22;2674;49.722;10.892;2023-04-24T13:58:57;14.20;1.00
5304;DHT22;2674;49.722;10.892;2023-04-24T14:01:23;14.30;1.00
5304;DHT22;2674;49.722;10.892;2023-04-24T14:03:54;14.10;1.00
5304;DHT22;2674;49.722;10.892;2023-04-24T14:06:21;14.10;1.00
5304;DHT22;2674;49.722;10.892;2023-04-24T14:08:47;14.10;1.00
5304;DHT22;2674;49.722;10.892;2023-04-24T14:11:13;14.20;1.00
5304;DHT22;2674;49.722;10.892;2023-04-24T14:13:41;14.20;1.00
5304;DHT22;2674;49.722;10.892;2023-04-24T14:16:07;14.20;1.00
5304;DHT22;2674;49.722;10.892;2023-04-24T14:18:33;14.10;1.00
5304;DHT22;2674;49.722;10.892;2023-04-24T14:20:59;13.80;1.00
5304;DHT22;2674;49.722;10.892;2023-04-24T14:23:27;13.60;1.00
5304;DHT22;2674;49.722;10.892;2023-04-24T14:25:52;13.40;1.00
5304;DHT22;2674;49.722;10.892;2023-04-24T14:28:21;13.30;1.00
5304;DHT22;2674;49.722;10.892;2023-04-24T14:30:47;13.10;1.00
5304;DHT22;2674;49.722;10.892;2023-04-24T14:33:14;13.00;1.00
5304;DHT22;2674;49.722;10.892;2023-04-24T14:35:40;12.90;1.00
5304;DHT22;2674;49.722;10.892;2023-04-24T14:38:08;12.80;1.00
5304;DHT22;2674;49.722;10.892;2023-04-24T14:40:34;12.60;1.00
5304;DHT22;2674;49.722;10.892;2023-04-24T14:43:00;12.60;1.00
5304;DHT22;2674;49.722;10.892;2023-04-24T14:45:27;12.70;1.00
5304;DHT22;2674;49.722;10.892;2023-04-24T14:47:53;12.80;1.00
5304;DHT22;2674;49.722;10.892;2023-04-24T14:50:19;13.00;1.00
5304;DHT22;2674;49.722;10.892;2023-04-24T14:52:45;13.10;1.00
5304;DHT22;2674;49.722;10.892;2023-04-24T14:55:12;13.30;1.00
5304;DHT22;2674;49.722;10.892;2023-04-24T14:57:38;13.40;1.00
5304;DHT22;2674;49.722;10.892;2023-04-24T15:00:05;13.40;1.00
5304;DHT22;2674;49.722;10.892;2023-04-24T15:02:33;13.40;1.00
5304;DHT22;2674;49.722;10.892;2023-04-24T15:04:59;13.40;1.00
5304;DHT22;2674;49.722;10.892;2023-04-24T15:07:25;13.30;1.00
5304;DHT22;2674;49.722;10.892;2023-04-24T15:09:51;13.20;1.00
5304;DHT22;2674;49.722;10.892;2023-04-24T15:12:17;13.10;1.00
5304;DHT22;2674;49.722;10.892;2023-04-24T15:14:43;12.90;1.00
5304;DHT22;2674;49.722;10.892;2023-04-24T15:17:08;12.80;1.00
5304;DHT22;2674;49.722;10.892;2023-04-24T15:19:34;12.70;1.00
5304;DHT22;2674;49.722;10.892;2023-04-24T15:22:00;12.50;1.00
5304;DHT22;2674;49.722;10.892;2023-04-24T15:24:26;12.40;1.00
5304;DHT22;2674;49.722;10.892;2023-04-24T15:26:52;12.30;1.00
5304;DHT22;2674;49.722;10.892;2023-04-24T15:29:18;12.20;1.00
5304;DHT22;2674;49.722;10.892;2023-04-24T15:31:44;12.10;1.00
5304;DHT22;2674;49.722;10.892;2023-04-24T15:34:10;11.90;1.00
5304;DHT22;2674;49.722;10.892;2023-04-24T15:36:35;11.50;1.00
5304;DHT22;2674;49.722;10.892;2023-04-24T15:39:04;11.20;1.00
5304;DHT22;2674;49.722;10.892;2023-04-24T15:41:30;11.00;1.00
5304;DHT22;2674;49.722;10.892;2023-04-24T15:43:57;10.70;1.00
5304;DHT22;2674;49.722;10.892;2023-04-24T15:46:23;10.60;1.00
5304;DHT22;2674;49.722;10.892;2023-04-24T15:48:49;10.60;1.00
5304;DHT22;2674;49.722;10.892;2023-04-24T15:51:15;10.60;1.00
5304;DHT22;2674;49.722;10.892;2023-04-24T15:53:41;10.50;1.00
5304;DHT22;2674;49.722;10.892;2023-04-24T15:56:16;10.60;1.00
5304;DHT22;2674;49.722;10.892;2023-04-24T15:58:42;10.60;1.00
5304;DHT22;2674;49.722;10.892;2023-04-24T16:01:07;10.70;1.00
5304;DHT22;2674;49.722;10.892;2023-04-24T16:03:34;10.70;1.00
5304;DHT22;2674;49.722;10.892;2023-04-24T16:06:00;10.80;1.00
5304;DHT22;2674;49.722;10.892;2023-04-24T16:08:25;10.90;1.00
5304;DHT22;2674;49.722;10.892;2023-04-24T16:10:51;11.00;1.00
5304;DHT22;2674;49.722;10.892;2023-04-24T16:13:18;11.10;1.00
5304;DHT22;2674;49.722;10.892;2023-04-24T16:15:47;11.50;1.00
5304;DHT22;2674;49.722;10.892;2023-04-24T16:18:13;11.70;1.00
5304;DHT22;2674;49.722;10.892;2023-04-24T16:20:39;11.80;1.00
5304;DHT22;2674;49.722;10.892;2023-04-24T16:23:04;11.80;1.00
5304;DHT22;2674;49.722;10.892;2023-04-24T16:25:31;11.70;1.00
5304;DHT22;2674;49.722;10.892;2023-04-24T16:27:56;11.60;1.00
5304;DHT22;2674;49.722;10.892;2023-04-24T16:30:22;11.60;1.00
5304;DHT22;2674;49.722;10.892;2023-04-24T16:32:48;11.50;1.00
5304;DHT22;2674;49.722;10.892;2023-04-24T16:35:14;11.50;1.00